KUNU/UNU METAR and TAF weather

Enter ICAO airport designator
Station Type Date Time Source
KUNU METAR 2019/06/16 13:35 UTC NOAA

KUNU 161335Z AUTO 02006KT 10SM OVC005 11/10 A2987 RMK AO2 T01060102 TSNO


Station Type Date Time Source
KUNU Decoded METAR 2019/06/16 13:35 UTC NOAA

Juneau, Dodge County Airport, WI, United States (KUNU) 43-25-36N 088-42-12W
Jun 16, 2019 - 09:35 AM EDT / 2019.06.16 1335 UTC
Wind: from the NNE (020 degrees) at 7 MPH (6 KT):0
Visibility: 10 mile(s):0
Sky conditions: overcast
Temperature: 51.1 F (10.6 C)
Dew Point: 50.4 F (10.2 C)
Relative Humidity: 97%
Pressure (altimeter): 29.87 in. Hg (1011 hPa)
ob: KUNU 161335Z AUTO 02006KT 10SM OVC005 11/10 A2987 RMK AO2 T01060102 TSNO
cycle: 13

Station Type Date Time Source
KUNU TAF UTC NOAA

Error!

Example: see airport list